sensor_id;sensor_type;location;lat;lon;timestamp;temperature;humidity
2100;DHT22;1055;48.854;9.302;2022-12-18T00:01:31;-6.50;99.90
2100;DHT22;1055;48.854;9.302;2022-12-18T00:03:59;-6.40;99.90
2100;DHT22;1055;48.854;9.302;2022-12-18T00:06:26;-6.60;99.90
2100;DHT22;1055;48.854;9.302;2022-12-18T00:08:52;-6.70;99.90
2100;DHT22;1055;48.854;9.302;2022-12-18T00:11:20;-6.60;99.90
2100;DHT22;1055;48.854;9.302;2022-12-18T00:13:49;-6.60;99.90
2100;DHT22;1055;48.854;9.302;2022-12-18T00:16:17;-6.80;99.90
2100;DHT22;1055;48.854;9.302;2022-12-18T00:18:45;-7.30;99.90
2100;DHT22;1055;48.854;9.302;2022-12-18T00:21:12;-7.30;99.90
2100;DHT22;1055;48.854;9.302;2022-12-18T00:23:40;-7.60;99.90
2100;DHT22;1055;48.854;9.302;2022-12-18T00:26:09;-7.60;99.90
2100;DHT22;1055;48.854;9.302;2022-12-18T00:28:35;-7.50;99.90
2100;DHT22;1055;48.854;9.302;2022-12-18T00:33:27;-7.40;99.90
2100;DHT22;1055;48.854;9.302;2022-12-18T00:35:53;-7.30;99.90
2100;DHT22;1055;48.854;9.302;2022-12-18T00:38:18;-7.80;99.90
2100;DHT22;1055;48.854;9.302;2022-12-18T00:40:44;-8.20;99.90
2100;DHT22;1055;48.854;9.302;2022-12-18T00:43:09;-8.00;99.90
2100;DHT22;1055;48.854;9.302;2022-12-18T00:45:35;-8.10;99.90
2100;DHT22;1055;48.854;9.302;2022-12-18T00:48:01;-7.60;99.90
2100;DHT22;1055;48.854;9.302;2022-12-18T00:50:26;-7.90;99.90
2100;DHT22;1055;48.854;9.302;2022-12-18T00:52:52;-8.50;99.90
2100;DHT22;1055;48.854;9.302;2022-12-18T00:55:18;-8.30;99.90
2100;DHT22;1055;48.854;9.302;2022-12-18T00:57:43;-8.20;99.90
2100;DHT22;1055;48.854;9.302;2022-12-18T01:00:14;-8.70;99.90
2100;DHT22;1055;48.854;9.302;2022-12-18T01:02:40;-8.80;99.90
2100;DHT22;1055;48.854;9.302;2022-12-18T01:05:07;-9.00;99.90
2100;DHT22;1055;48.854;9.302;2022-12-18T01:07:32;-9.00;99.90
2100;DHT22;1055;48.854;9.302;2022-12-18T01:09:58;-9.20;99.90
2100;DHT22;1055;48.854;9.302;2022-12-18T01:12:23;-9.20;99.90
2100;DHT22;1055;48.854;9.302;2022-12-18T01:14:49;-9.40;99.90
2100;DHT22;1055;48.854;9.302;2022-12-18T01:17:15;-9.30;99.90
2100;DHT22;1055;48.854;9.302;2022-12-18T01:19:40;-9.20;99.90
2100;DHT22;1055;48.854;9.302;2022-12-18T01:22:06;-9.30;99.90
2100;DHT22;1055;48.854;9.302;2022-12-18T01:24:31;-9.40;99.90
2100;DHT22;1055;48.854;9.302;2022-12-18T01:26:57;-9.40;99.90
2100;DHT22;1055;48.854;9.302;2022-12-18T01:29:23;-9.40;99.90
2100;DHT22;1055;48.854;9.302;2022-12-18T01:31:49;-9.40;99.90
2100;DHT22;1055;48.854;9.302;2022-12-18T01:34:14;-9.50;99.90
2100;DHT22;1055;48.854;9.302;2022-12-18T01:36:40;-9.50;99.90
2100;DHT22;1055;48.854;9.302;2022-12-18T01:39:10;-9.50;99.90
2100;DHT22;1055;48.854;9.302;2022-12-18T01:41:36;-9.40;99.90
2100;DHT22;1055;48.854;9.302;2022-12-18T01:49:46;-9.30;99.90
2100;DHT22;1055;48.854;9.302;2022-12-18T01:52:11;-9.30;99.90
2100;DHT22;1055;48.854;9.302;2022-12-18T01:54:37;-9.10;99.90
2100;DHT22;1055;48.854;9.302;2022-12-18T01:57:03;-9.10;99.90
2100;DHT22;1055;48.854;9.302;2022-12-18T01:59:29;-9.00;99.90
2100;DHT22;1055;48.854;9.302;2022-12-18T02:01:57;-8.90;99.90
2100;DHT22;1055;48.854;9.302;2022-12-18T02:04:25;-8.90;99.90
2100;DHT22;1055;48.854;9.302;2022-12-18T02:07:05;-8.70;99.90
2100;DHT22;1055;48.854;9.302;2022-12-18T02:09:50;-8.40;99.90
2100;DHT22;1055;48.854;9.302;2022-12-18T02:12:20;-8.50;99.90
2100;DHT22;1055;48.854;9.302;2022-12-18T02:15:24;-9.10;99.90
2100;DHT22;1055;48.854;9.302;2022-12-18T02:17:56;-9.10;99.90
2100;DHT22;1055;48.854;9.302;2022-12-18T02:20:36;-9.00;99.90
2100;DHT22;1055;48.854;9.302;2022-12-18T02:23:24;-8.90;99.90
2100;DHT22;1055;48.854;9.302;2022-12-18T02:26:15;-8.90;99.90
2100;DHT22;1055;48.854;9.302;2022-12-18T02:28:50;-9.10;99.90
2100;DHT22;1055;48.854;9.302;2022-12-18T02:31:24;-9.30;99.90
2100;DHT22;1055;48.854;9.302;2022-12-18T02:33:53;-9.40;99.90
2100;DHT22;1055;48.854;9.302;2022-12-18T02:36:20;-9.20;99.90
2100;DHT22;1055;48.854;9.302;2022-12-18T02:38:47;-9.10;99.90
2100;DHT22;1055;48.854;9.302;2022-12-18T02:41:14;-9.00;99.90
2100;DHT22;1055;48.854;9.302;2022-12-18T02:43:47;-9.10;99.90
2100;DHT22;1055;48.854;9.302;2022-12-18T02:48:59;-8.90;99.90
2100;DHT22;1055;48.854;9.302;2022-12-18T02:51:38;-8.90;99.90
2100;DHT22;1055;48.854;9.302;2022-12-18T02:54:10;-9.00;99.90
2100;DHT22;1055;48.854;9.302;2022-12-18T02:56:54;-9.10;99.90
2100;DHT22;1055;48.854;9.302;2022-12-18T02:59:36;-9.20;99.90
2100;DHT22;1055;48.854;9.302;2022-12-18T03:02:21;-9.30;99.90
2100;DHT22;1055;48.854;9.302;2022-12-18T03:04:58;-9.30;99.90
2100;DHT22;1055;48.854;9.302;2022-12-18T03:07:45;-9.20;99.90
2100;DHT22;1055;48.854;9.302;2022-12-18T03:10:16;-9.30;99.90
2100;DHT22;1055;48.854;9.302;2022-12-18T03:13:01;-9.10;99.90
2100;DHT22;1055;48.854;9.302;2022-12-18T03:15:31;-8.90;99.90
2100;DHT22;1055;48.854;9.302;2022-12-18T03:18:04;-8.70;99.90
2100;DHT22;1055;48.854;9.302;2022-12-18T03:20:34;-8.90;99.90
2100;DHT22;1055;48.854;9.302;2022-12-18T03:23:06;-9.10;99.90
2100;DHT22;1055;48.854;9.302;2022-12-18T03:25:34;-8.70;99.90
2100;DHT22;1055;48.854;9.302;2022-12-18T03:28:03;-8.80;99.90
2100;DHT22;1055;48.854;9.302;2022-12-18T03:30:32;-9.00;99.90
2100;DHT22;1055;48.854;9.302;2022-12-18T03:33:08;-9.30;99.90
2100;DHT22;1055;48.854;9.302;2022-12-18T03:35:37;-9.20;99.90
2100;DHT22;1055;48.854;9.302;2022-12-18T03:38:04;-9.30;99.90
2100;DHT22;1055;48.854;9.302;2022-12-18T03:41:19;-9.30;99.90
2100;DHT22;1055;48.854;9.302;2022-12-18T03:43:36;-9.30;99.90
2100;DHT22;1055;48.854;9.302;2022-12-18T03:46:59;-9.40;99.90
2100;DHT22;1055;48.854;9.302;2022-12-18T03:55:01;-8.80;99.90
2100;DHT22;1055;48.854;9.302;2022-12-18T03:57:30;-9.00;99.90
2100;DHT22;1055;48.854;9.302;2022-12-18T04:00:03;-9.20;99.90
2100;DHT22;1055;48.854;9.302;2022-12-18T04:02:30;-9.20;99.90
2100;DHT22;1055;48.854;9.302;2022-12-18T04:04:58;-9.20;99.90
2100;DHT22;1055;48.854;9.302;2022-12-18T04:07:25;-9.00;99.90
2100;DHT22;1055;48.854;9.302;2022-12-18T04:09:54;-9.00;99.90
2100;DHT22;1055;48.854;9.302;2022-12-18T04:12:21;-9.00;99.90
2100;DHT22;1055;48.854;9.302;2022-12-18T04:14:46;-8.60;99.90
2100;DHT22;1055;48.854;9.302;2022-12-18T04:17:12;-8.30;99.90
2100;DHT22;1055;48.854;9.302;2022-12-18T04:19:37;-8.10;99.90
2100;DHT22;1055;48.854;9.302;2022-12-18T04:22:03;-7.80;99.90
2100;DHT22;1055;48.854;9.302;2022-12-18T04:24:28;-7.80;99.90
2100;DHT22;1055;48.854;9.302;2022-12-18T04:26:54;-7.80;99.90
2100;DHT22;1055;48.854;9.302;2022-12-18T04:29:20;-7.80;99.90
2100;DHT22;1055;48.854;9.302;2022-12-18T04:31:45;-8.40;99.90
2100;DHT22;1055;48.854;9.302;2022-12-18T04:34:11;-8.50;99.90
2100;DHT22;1055;48.854;9.302;2022-12-18T04:36:36;-8.80;99.90
2100;DHT22;1055;48.854;9.302;2022-12-18T04:39:02;-8.70;99.90
2100;DHT22;1055;48.854;9.302;2022-12-18T04:41:27;-8.60;99.90
2100;DHT22;1055;48.854;9.302;2022-12-18T04:43:53;-8.30;99.90
2100;DHT22;1055;48.854;9.302;2022-12-18T04:46:19;-8.40;99.90
2100;DHT22;1055;48.854;9.302;2022-12-18T04:48:45;-8.30;99.90
2100;DHT22;1055;48.854;9.302;2022-12-18T04:51:11;-8.20;99.90
2100;DHT22;1055;48.854;9.302;2022-12-18T04:53:37;-8.10;99.90
2100;DHT22;1055;48.854;9.302;2022-12-18T04:56:12;-8.70;99.90
2100;DHT22;1055;48.854;9.302;2022-12-18T04:58:39;-8.50;99.90
2100;DHT22;1055;48.854;9.302;2022-12-18T05:01:06;-8.20;99.90
2100;DHT22;1055;48.854;9.302;2022-12-18T05:03:33;-7.90;99.90
2100;DHT22;1055;48.854;9.302;2022-12-18T05:05:59;-7.90;99.90
2100;DHT22;1055;48.854;9.302;2022-12-18T05:08:25;-8.20;99.90
2100;DHT22;1055;48.854;9.302;2022-12-18T05:11:01;-8.10;99.90
2100;DHT22;1055;48.854;9.302;2022-12-18T05:13:28;-7.90;99.90
2100;DHT22;1055;48.854;9.302;2022-12-18T05:15:54;-8.00;99.90
2100;DHT22;1055;48.854;9.302;2022-12-18T05:18:21;-8.30;99.90
2100;DHT22;1055;48.854;9.302;2022-12-18T05:20:46;-8.30;99.90
2100;DHT22;1055;48.854;9.302;2022-12-18T05:23:12;-8.10;99.90
2100;DHT22;1055;48.854;9.302;2022-12-18T05:25:38;-8.20;99.90
2100;DHT22;1055;48.854;9.302;2022-12-18T05:28:04;-9.10;99.90
2100;DHT22;1055;48.854;9.302;2022-12-18T05:30:29;-8.90;99.90
2100;DHT22;1055;48.854;9.302;2022-12-18T05:32:55;-8.50;99.90
2100;DHT22;1055;48.854;9.302;2022-12-18T05:35:20;-8.90;99.90
2100;DHT22;1055;48.854;9.302;2022-12-18T05:37:46;-8.90;99.90
2100;DHT22;1055;48.854;9.302;2022-12-18T05:40:12;-8.60;99.90
2100;DHT22;1055;48.854;9.302;2022-12-18T05:42:38;-8.40;99.90
2100;DHT22;1055;48.854;9.302;2022-12-18T05:45:04;-8.20;99.90
2100;DHT22;1055;48.854;9.302;2022-12-18T05:47:30;-8.10;99.90
2100;DHT22;1055;48.854;9.302;2022-12-18T05:49:56;-8.20;99.90
2100;DHT22;1055;48.854;9.302;2022-12-18T05:52:21;-8.30;99.90
2100;DHT22;1055;48.854;9.302;2022-12-18T05:54:47;-8.00;99.90
2100;DHT22;1055;48.854;9.302;2022-12-18T05:57:13;-7.80;99.90
2100;DHT22;1055;48.854;9.302;2022-12-18T05:59:38;-7.70;99.90
2100;DHT22;1055;48.854;9.302;2022-12-18T06:02:04;-8.10;99.90
2100;DHT22;1055;48.854;9.302;2022-12-18T06:04:31;-8.10;99.90
2100;DHT22;1055;48.854;9.302;2022-12-18T06:06:57;-7.90;99.90
2100;DHT22;1055;48.854;9.302;2022-12-18T06:09:22;-7.80;99.90
2100;DHT22;1055;48.854;9.302;2022-12-18T06:11:48;-7.80;99.90
2100;DHT22;1055;48.854;9.302;2022-12-18T06:14:16;-8.20;99.90
2100;DHT22;1055;48.854;9.302;2022-12-18T06:16:42;-8.10;99.90
2100;DHT22;1055;48.854;9.302;2022-12-18T06:19:14;-8.00;99.90
2100;DHT22;1055;48.854;9.302;2022-12-18T06:21:40;-8.00;99.90
2100;DHT22;1055;48.854;9.302;2022-12-18T06:24:06;-7.80;99.90
2100;DHT22;1055;48.854;9.302;2022-12-18T06:26:32;-7.70;99.90
2100;DHT22;1055;48.854;9.302;2022-12-18T06:28:57;-7.80;99.90
2100;DHT22;1055;48.854;9.302;2022-12-18T06:31:23;-7.70;99.90
2100;DHT22;1055;48.854;9.302;2022-12-18T06:33:49;-7.70;99.90
2100;DHT22;1055;48.854;9.302;2022-12-18T06:36:14;-7.70;99.90
2100;DHT22;1055;48.854;9.302;2022-12-18T06:38:42;-7.90;99.90
2100;DHT22;1055;48.854;9.302;2022-12-18T06:41:16;-8.00;99.90
2100;DHT22;1055;48.854;9.302;2022-12-18T06:43:42;-8.60;99.90
2100;DHT22;1055;48.854;9.302;2022-12-18T06:46:08;-8.50;99.90
2100;DHT22;1055;48.854;9.302;2022-12-18T06:48:34;-8.20;99.90
2100;DHT22;1055;48.854;9.302;2022-12-18T06:51:00;-8.30;99.90
2100;DHT22;1055;48.854;9.302;2022-12-18T06:53:26;-8.60;99.90
2100;DHT22;1055;48.854;9.302;2022-12-18T06:55:51;-8.90;99.90
2100;DHT22;1055;48.854;9.302;2022-12-18T06:58:17;-8.60;99.90
2100;DHT22;1055;48.854;9.302;2022-12-18T07:00:45;-8.40;99.90
2100;DHT22;1055;48.854;9.302;2022-12-18T07:03:15;-8.20;99.90
2100;DHT22;1055;48.854;9.302;2022-12-18T07:05:43;-8.20;99.90
2100;DHT22;1055;48.854;9.302;2022-12-18T07:08:09;-8.10;99.90
2100;DHT22;1055;48.854;9.302;2022-12-18T07:10:41;-8.00;99.90
2100;DHT22;1055;48.854;9.302;2022-12-18T07:13:07;-7.90;99.90
2100;DHT22;1055;48.854;9.302;2022-12-18T07:15:33;-8.00;99.90
2100;DHT22;1055;48.854;9.302;2022-12-18T07:17:58;-8.10;99.90
2100;DHT22;1055;48.854;9.302;2022-12-18T07:20:24;-8.10;99.90
2100;DHT22;1055;48.854;9.302;2022-12-18T07:22:49;-8.00;99.90
2100;DHT22;1055;48.854;9.302;2022-12-18T07:25:15;-7.90;99.90
2100;DHT22;1055;48.854;9.302;2022-12-18T07:27:41;-7.80;99.90
2100;DHT22;1055;48.854;9.302;2022-12-18T07:30:07;-7.10;99.90
2100;DHT22;1055;48.854;9.302;2022-12-18T07:32:32;-7.00;99.90
2100;DHT22;1055;48.854;9.302;2022-12-18T07:34:58;-7.10;99.90
2100;DHT22;1055;48.854;9.302;2022-12-18T07:37:24;-7.20;99.90
2100;DHT22;1055;48.854;9.302;2022-12-18T07:39:49;-7.30;99.90
2100;DHT22;1055;48.854;9.302;2022-12-18T07:42:15;-7.30;99.90
2100;DHT22;1055;48.854;9.302;2022-12-18T07:44:56;-7.40;99.90
2100;DHT22;1055;48.854;9.302;2022-12-18T07:47:22;-7.30;99.90
2100;DHT22;1055;48.854;9.302;2022-12-18T07:49:48;-7.20;99.90
2100;DHT22;1055;48.854;9.302;2022-12-18T07:52:13;-7.10;99.90
2100;DHT22;1055;48.854;9.302;2022-12-18T07:54:39;-7.20;99.90
2100;DHT22;1055;48.854;9.302;2022-12-18T07:57:06;-7.60;99.90
2100;DHT22;1055;48.854;9.302;2022-12-18T07:59:31;-7.40;99.90
2100;DHT22;1055;48.854;9.302;2022-12-18T08:01:57;-7.50;99.90
2100;DHT22;1055;48.854;9.302;2022-12-18T08:04:24;-7.40;99.90
2100;DHT22;1055;48.854;9.302;2022-12-18T08:06:50;-7.40;99.90
2100;DHT22;1055;48.854;9.302;2022-12-18T08:09:16;-7.20;99.90
2100;DHT22;1055;48.854;9.302;2022-12-18T08:11:42;-7.10;99.90
2100;DHT22;1055;48.854;9.302;2022-12-18T08:14:08;-7.10;99.90
2100;DHT22;1055;48.854;9.302;2022-12-18T08:16:34;-7.30;99.90
2100;DHT22;1055;48.854;9.302;2022-12-18T08:18:59;-7.20;99.90
2100;DHT22;1055;48.854;9.302;2022-12-18T08:21:28;-7.00;99.90
2100;DHT22;1055;48.854;9.302;2022-12-18T08:23:55;-7.00;99.90
2100;DHT22;1055;48.854;9.302;2022-12-18T08:26:22;-6.90;99.90
2100;DHT22;1055;48.854;9.302;2022-12-18T08:28:49;-6.80;99.90
2100;DHT22;1055;48.854;9.302;2022-12-18T08:31:15;-6.60;99.90
2100;DHT22;1055;48.854;9.302;2022-12-18T08:33:41;-6.60;99.90
2100;DHT22;1055;48.854;9.302;2022-12-18T08:36:08;-6.70;99.90
2100;DHT22;1055;48.854;9.302;2022-12-18T08:38:34;-6.60;99.90
2100;DHT22;1055;48.854;9.302;2022-12-18T08:41:01;-6.50;99.90
2100;DHT22;1055;48.854;9.302;2022-12-18T08:43:26;-6.50;99.90
2100;DHT22;1055;48.854;9.302;2022-12-18T08:46:11;-6.40;99.90
2100;DHT22;1055;48.854;9.302;2022-12-18T08:48:37;-6.40;99.90
2100;DHT22;1055;48.854;9.302;2022-12-18T08:51:03;-6.30;99.90
2100;DHT22;1055;48.854;9.302;2022-12-18T08:53:28;-6.20;99.90
2100;DHT22;1055;48.854;9.302;2022-12-18T08:55:56;-6.20;99.90
2100;DHT22;1055;48.854;9.302;2022-12-18T08:58:22;-5.90;99.90
2100;DHT22;1055;48.854;9.302;2022-12-18T09:00:48;-5.60;99.90
2100;DHT22;1055;48.854;9.302;2022-12-18T09:03:15;-5.50;99.90
2100;DHT22;1055;48.854;9.302;2022-12-18T09:05:41;-5.40;99.90
2100;DHT22;1055;48.854;9.302;2022-12-18T09:08:07;-5.40;99.90
2100;DHT22;1055;48.854;9.302;2022-12-18T09:10:33;-5.40;99.90
2100;DHT22;1055;48.854;9.302;2022-12-18T09:12:59;-5.40;99.90
2100;DHT22;1055;48.854;9.302;2022-12-18T09:15:25;-5.40;99.90
2100;DHT22;1055;48.854;9.302;2022-12-18T09:17:50;-5.30;99.90
2100;DHT22;1055;48.854;9.302;2022-12-18T09:20:18;-5.30;99.90
2100;DHT22;1055;48.854;9.302;2022-12-18T09:22:44;-5.30;99.90
2100;DHT22;1055;48.854;9.302;2022-12-18T09:25:10;-5.30;99.90
2100;DHT22;1055;48.854;9.302;2022-12-18T09:27:35;-5.60;99.90
2100;DHT22;1055;48.854;9.302;2022-12-18T09:30:01;-5.70;99.90
2100;DHT22;1055;48.854;9.302;2022-12-18T09:32:27;-6.10;99.90
2100;DHT22;1055;48.854;9.302;2022-12-18T09:34:53;-6.20;99.90
2100;DHT22;1055;48.854;9.302;2022-12-18T09:37:18;-6.10;99.90
2100;DHT22;1055;48.854;9.302;2022-12-18T09:39:44;-6.10;99.90
2100;DHT22;1055;48.854;9.302;2022-12-18T09:42:27;-6.00;99.90
2100;DHT22;1055;48.854;9.302;2022-12-18T09:44:53;-6.10;99.90
2100;DHT22;1055;48.854;9.302;2022-12-18T09:47:30;-6.10;99.90
2100;DHT22;1055;48.854;9.302;2022-12-18T09:50:02;-6.00;99.90
2100;DHT22;1055;48.854;9.302;2022-12-18T09:52:43;-6.00;99.90
2100;DHT22;1055;48.854;9.302;2022-12-18T09:57:39;-5.70;99.90
2100;DHT22;1055;48.854;9.302;2022-12-18T10:00:20;-5.40;99.90
2100;DHT22;1055;48.854;9.302;2022-12-18T10:02:46;-5.10;99.90
2100;DHT22;1055;48.854;9.302;2022-12-18T10:05:16;-4.00;99.90
2100;DHT22;1055;48.854;9.302;2022-12-18T10:10:47;-2.80;99.90
2100;DHT22;1055;48.854;9.302;2022-12-18T10:16:02;-2.90;99.90
2100;DHT22;1055;48.854;9.302;2022-12-18T10:21:17;-3.00;99.90
2100;DHT22;1055;48.854;9.302;2022-12-18T10:24:14;-3.10;99.90
2100;DHT22;1055;48.854;9.302;2022-12-18T10:26:41;-3.40;99.90
2100;DHT22;1055;48.854;9.302;2022-12-18T10:29:12;-3.30;99.90
2100;DHT22;1055;48.854;9.302;2022-12-18T10:31:37;-3.50;99.90
2100;DHT22;1055;48.854;9.302;2022-12-18T10:34:03;-3.40;99.90
2100;DHT22;1055;48.854;9.302;2022-12-18T10:36:29;-3.30;99.90
2100;DHT22;1055;48.854;9.302;2022-12-18T10:39:15;-3.40;99.90
2100;DHT22;1055;48.854;9.302;2022-12-18T10:41:41;-3.20;99.90
2100;DHT22;1055;48.854;9.302;2022-12-18T10:44:22;-3.20;99.90
2100;DHT22;1055;48.854;9.302;2022-12-18T10:46:51;-3.10;99.90
2100;DHT22;1055;48.854;9.302;2022-12-18T10:49:30;-2.90;99.90
2100;DHT22;1055;48.854;9.302;2022-12-18T10:54:49;-2.60;99.90
2100;DHT22;1055;48.854;9.302;2022-12-18T10:57:37;-2.40;99.90
2100;DHT22;1055;48.854;9.302;2022-12-18T11:00:27;-2.30;99.90
2100;DHT22;1055;48.854;9.302;2022-12-18T11:02:54;-1.70;99.90
2100;DHT22;1055;48.854;9.302;2022-12-18T11:05:35;-2.20;99.90
2100;DHT22;1055;48.854;9.302;2022-12-18T11:08:02;-2.00;99.90
2100;DHT22;1055;48.854;9.302;2022-12-18T11:10:34;-1.30;99.90
2100;DHT22;1055;48.854;9.302;2022-12-18T11:13:21;-0.90;99.90
2100;DHT22;1055;48.854;9.302;2022-12-18T11:15:47;-0.90;99.90
2100;DHT22;1055;48.854;9.302;2022-12-18T11:18:34;-0.80;99.90
2100;DHT22;1055;48.854;9.302;2022-12-18T11:21:07;-0.60;99.90
2100;DHT22;1055;48.854;9.302;2022-12-18T11:23:34;-0.20;99.90
2100;DHT22;1055;48.854;9.302;2022-12-18T11:26:04;-0.10;99.90
2100;DHT22;1055;48.854;9.302;2022-12-18T11:28:36;-0.40;99.90
2100;DHT22;1055;48.854;9.302;2022-12-18T11:33:46;0.20;99.90
2100;DHT22;1055;48.854;9.302;2022-12-18T11:36:12;0.10;99.90
2100;DHT22;1055;48.854;9.302;2022-12-18T11:38:40;0.20;99.90
2100;DHT22;1055;48.854;9.302;2022-12-18T11:44:01;0.90;99.90
2100;DHT22;1055;48.854;9.302;2022-12-18T11:46:33;0.90;99.90
2100;DHT22;1055;48.854;9.302;2022-12-18T11:49:07;0.10;99.90
2100;DHT22;1055;48.854;9.302;2022-12-18T11:51:41;0.40;99.90
2100;DHT22;1055;48.854;9.302;2022-12-18T11:54:13;0.40;99.90
2100;DHT22;1055;48.854;9.302;2022-12-18T11:57:05;0.30;99.90
2100;DHT22;1055;48.854;9.302;2022-12-18T11:59:35;0.00;99.90
2100;DHT22;1055;48.854;9.302;2022-12-18T12:05:38;-0.60;99.90
2100;DHT22;1055;48.854;9.302;2022-12-18T12:13:30;-0.90;99.90
2100;DHT22;1055;48.854;9.302;2022-12-18T12:16:26;-1.00;99.90
2100;DHT22;1055;48.854;9.302;2022-12-18T12:21:58;-1.10;99.90
2100;DHT22;1055;48.854;9.302;2022-12-18T12:32:51;-1.20;99.90
2100;DHT22;1055;48.854;9.302;2022-12-18T12:38:05;-0.90;99.90
2100;DHT22;1055;48.854;9.302;2022-12-18T12:40:36;-0.80;99.90
2100;DHT22;1055;48.854;9.302;2022-12-18T12:45:50;-0.80;99.90
2100;DHT22;1055;48.854;9.302;2022-12-18T12:50:48;-0.60;99.90
2100;DHT22;1055;48.854;9.302;2022-12-18T12:53:23;-0.40;99.90
2100;DHT22;1055;48.854;9.302;2022-12-18T12:55:51;-0.50;99.90
2100;DHT22;1055;48.854;9.302;2022-12-18T12:58:28;-0.40;99.90
2100;DHT22;1055;48.854;9.302;2022-12-18T13:01:10;-0.30;99.90
2100;DHT22;1055;48.854;9.302;2022-12-18T13:03:43;-0.10;99.90
2100;DHT22;1055;48.854;9.302;2022-12-18T13:06:33;0.10;99.90
2100;DHT22;1055;48.854;9.302;2022-12-18T13:09:01;-0.20;99.90
2100;DHT22;1055;48.854;9.302;2022-12-18T13:14:39;0.20;99.90
2100;DHT22;1055;48.854;9.302;2022-12-18T13:19:51;0.00;99.90
2100;DHT22;1055;48.854;9.302;2022-12-18T13:22:28;0.10;99.90
2100;DHT22;1055;48.854;9.302;2022-12-18T13:24:55;0.10;99.90
2100;DHT22;1055;48.854;9.302;2022-12-18T13:38:34;-0.40;99.90
2100;DHT22;1055;48.854;9.302;2022-12-18T13:41:23;-0.30;99.90
2100;DHT22;1055;48.854;9.302;2022-12-18T13:43:52;-0.30;99.90
2100;DHT22;1055;48.854;9.302;2022-12-18T13:46:27;-0.40;99.90
2100;DHT22;1055;48.854;9.302;2022-12-18T13:49:17;-0.40;99.90
2100;DHT22;1055;48.854;9.302;2022-12-18T13:51:51;-0.40;99.90
2100;DHT22;1055;48.854;9.302;2022-12-18T13:54:35;-0.50;99.90
2100;DHT22;1055;48.854;9.302;2022-12-18T13:57:02;-0.40;99.90
2100;DHT22;1055;48.854;9.302;2022-12-18T13:59:35;-0.40;99.90
2100;DHT22;1055;48.854;9.302;2022-12-18T14:02:14;-0.10;99.90
2100;DHT22;1055;48.854;9.302;2022-12-18T14:04:39;0.00;99.90
2100;DHT22;1055;48.854;9.302;2022-12-18T14:07:37;-0.20;99.90
2100;DHT22;1055;48.854;9.302;2022-12-18T14:10:03;-0.30;99.90
2100;DHT22;1055;48.854;9.302;2022-12-18T14:12:33;-0.10;99.90
2100;DHT22;1055;48.854;9.302;2022-12-18T14:16:00;-0.10;99.90
2100;DHT22;1055;48.854;9.302;2022-12-18T14:18:20;0.10;99.90
2100;DHT22;1055;48.854;9.302;2022-12-18T14:20:49;0.20;99.90
2100;DHT22;1055;48.854;9.302;2022-12-18T14:23:44;0.00;99.90
2100;DHT22;1055;48.854;9.302;2022-12-18T14:26:27;0.00;99.90
2100;DHT22;1055;48.854;9.302;2022-12-18T14:29:18;-0.20;99.90
2100;DHT22;1055;48.854;9.302;2022-12-18T14:31:43;-0.50;99.90
2100;DHT22;1055;48.854;9.302;2022-12-18T14:34:18;-0.30;99.90
2100;DHT22;1055;48.854;9.302;2022-12-18T14:36:54;-0.30;99.90
2100;DHT22;1055;48.854;9.302;2022-12-18T14:39:21;-0.60;99.90
2100;DHT22;1055;48.854;9.302;2022-12-18T14:41:49;-0.70;99.90
2100;DHT22;1055;48.854;9.302;2022-12-18T14:44:16;-1.30;99.90
2100;DHT22;1055;48.854;9.302;2022-12-18T14:46:44;-1.10;99.90
2100;DHT22;1055;48.854;9.302;2022-12-18T14:49:30;-0.90;99.90
2100;DHT22;1055;48.854;9.302;2022-12-18T14:52:00;-1.20;99.90
2100;DHT22;1055;48.854;9.302;2022-12-18T14:54:28;-1.30;99.90
2100;DHT22;1055;48.854;9.302;2022-12-18T14:57:05;-1.00;99.90
2100;DHT22;1055;48.854;9.302;2022-12-18T14:59:31;-1.00;99.90
2100;DHT22;1055;48.854;9.302;2022-12-18T15:02:04;-1.20;99.90
2100;DHT22;1055;48.854;9.302;2022-12-18T15:04:37;-0.90;99.90
2100;DHT22;1055;48.854;9.302;2022-12-18T15:07:25;-0.90;99.90
2100;DHT22;1055;48.854;9.302;2022-12-18T15:18:04;-1.10;99.90
2100;DHT22;1055;48.854;9.302;2022-12-18T15:20:54;-0.90;99.90
2100;DHT22;1055;48.854;9.302;2022-12-18T15:23:27;-1.00;99.90
2100;DHT22;1055;48.854;9.302;2022-12-18T15:25:59;-0.80;99.90
2100;DHT22;1055;48.854;9.302;2022-12-18T15:33:42;-1.40;99.90
2100;DHT22;1055;48.854;9.302;2022-12-18T15:36:13;-1.80;99.90
2100;DHT22;1055;48.854;9.302;2022-12-18T15:38:40;-1.40;99.90
2100;DHT22;1055;48.854;9.302;2022-12-18T15:41:18;-1.30;99.90
2100;DHT22;1055;48.854;9.302;2022-12-18T15:43:45;-1.20;99.90
2100;DHT22;1055;48.854;9.302;2022-12-18T15:46:16;-1.10;99.90
2100;DHT22;1055;48.854;9.302;2022-12-18T15:48:44;-1.40;99.90
2100;DHT22;1055;48.854;9.302;2022-12-18T15:51:14;-1.50;99.90
2100;DHT22;1055;48.854;9.302;2022-12-18T15:53:40;-1.30;99.90
2100;DHT22;1055;48.854;9.302;2022-12-18T15:56:10;-1.20;99.90
2100;DHT22;1055;48.854;9.302;2022-12-18T15:58:55;-1.30;99.90
2100;DHT22;1055;48.854;9.302;2022-12-18T16:01:23;-1.30;99.90
2100;DHT22;1055;48.854;9.302;2022-12-18T16:03:50;-1.90;99.90
2100;DHT22;1055;48.854;9.302;2022-12-18T16:06:16;-1.90;99.90
2100;DHT22;1055;48.854;9.302;2022-12-18T16:08:41;-2.30;99.90
2100;DHT22;1055;48.854;9.302;2022-12-18T16:11:27;-1.90;99.90
2100;DHT22;1055;48.854;9.302;2022-12-18T16:14:21;-1.70;99.90
2100;DHT22;1055;48.854;9.302;2022-12-18T16:16:50;-1.50;99.90
2100;DHT22;1055;48.854;9.302;2022-12-18T16:19:16;-1.40;99.90
2100;DHT22;1055;48.854;9.302;2022-12-18T16:21:42;-1.40;99.90
2100;DHT22;1055;48.854;9.302;2022-12-18T16:24:19;-1.70;99.90
2100;DHT22;1055;48.854;9.302;2022-12-18T16:26:44;-1.60;99.90
2100;DHT22;1055;48.854;9.302;2022-12-18T16:29:10;-1.60;99.90
2100;DHT22;1055;48.854;9.302;2022-12-18T16:31:37;-1.60;99.90
2100;DHT22;1055;48.854;9.302;2022-12-18T16:34:21;-1.50;99.90
2100;DHT22;1055;48.854;9.302;2022-12-18T16:36:48;-1.60;99.90
2100;DHT22;1055;48.854;9.302;2022-12-18T16:39:14;-1.50;99.90
2100;DHT22;1055;48.854;9.302;2022-12-18T16:41:39;-1.60;99.90
2100;DHT22;1055;48.854;9.302;2022-12-18T16:44:05;-1.60;99.90
2100;DHT22;1055;48.854;9.302;2022-12-18T16:46:31;-1.50;99.90
2100;DHT22;1055;48.854;9.302;2022-12-18T16:48:58;-1.40;99.90
2100;DHT22;1055;48.854;9.302;2022-12-18T16:51:24;-1.60;99.90
2100;DHT22;1055;48.854;9.302;2022-12-18T16:53:49;-1.60;99.90
2100;DHT22;1055;48.854;9.302;2022-12-18T16:56:15;-1.50;99.90
2100;DHT22;1055;48.854;9.302;2022-12-18T16:58:41;-1.60;99.90
2100;DHT22;1055;48.854;9.302;2022-12-18T17:01:08;-1.50;99.90
2100;DHT22;1055;48.854;9.302;2022-12-18T17:03:34;-1.60;99.90
2100;DHT22;1055;48.854;9.302;2022-12-18T17:06:04;-1.60;99.90
2100;DHT22;1055;48.854;9.302;2022-12-18T17:08:30;-1.70;99.90
2100;DHT22;1055;48.854;9.302;2022-12-18T17:10:56;-1.70;99.90
2100;DHT22;1055;48.854;9.302;2022-12-18T17:13:25;-1.70;99.90
2100;DHT22;1055;48.854;9.302;2022-12-18T17:15:51;-1.80;99.90
2100;DHT22;1055;48.854;9.302;2022-12-18T17:18:16;-1.90;99.90
2100;DHT22;1055;48.854;9.302;2022-12-18T17:20:42;-1.80;99.90
2100;DHT22;1055;48.854;9.302;2022-12-18T17:23:07;-2.30;99.90
2100;DHT22;1055;48.854;9.302;2022-12-18T17:25:33;-2.40;99.90
2100;DHT22;1055;48.854;9.302;2022-12-18T17:27:59;-2.40;99.90
2100;DHT22;1055;48.854;9.302;2022-12-18T17:30:24;-2.60;99.90
2100;DHT22;1055;48.854;9.302;2022-12-18T17:32:50;-2.70;99.90
2100;DHT22;1055;48.854;9.302;2022-12-18T17:35:15;-2.50;99.90
2100;DHT22;1055;48.854;9.302;2022-12-18T17:37:41;-2.50;99.90
2100;DHT22;1055;48.854;9.302;2022-12-18T17:40:07;-2.70;99.90
2100;DHT22;1055;48.854;9.302;2022-12-18T17:42:33;-2.50;99.90
2100;DHT22;1055;48.854;9.302;2022-12-18T17:44:58;-2.40;99.90
2100;DHT22;1055;48.854;9.302;2022-12-18T17:47:24;-2.10;99.90
2100;DHT22;1055;48.854;9.302;2022-12-18T17:49:49;-2.40;99.90
2100;DHT22;1055;48.854;9.302;2022-12-18T17:52:16;-2.20;99.90
2100;DHT22;1055;48.854;9.302;2022-12-18T17:54:41;-2.00;99.90